Thunder radar more information blitzortung!


Radar de pluja more information rain snow radar


Visita la nostra xarxa de llocs de meteo:

Template documentation
and downloads

And another site



No particular awareness of the weather is required.    There are no Weather-warnings

Pagina Historial Weather Underground text

Diari Resum Octubre 25, 2017 Unitats:  Tant    Imperial   Mètric
« Previous Dia
SegĂźent Dia »
Diari Setmana Mensual Anual Personalitzada
  Maxima: Minima: Media:
Temperatura: 74.5 °F /  23.6 °C 51.8 °F /  11.0 °C 65.5 °F /  18.6 °C
Punt de rosada: 58.5 °F /  14.7 °C 44.1 °F /  6.7 °C 53.4 °F /  11.9 °C
Humitat: 83 % 51 % 66 %
Wind Speed: 6.9 mph /  11.1 km/h - 2.3 mph /  3.7 km/h
RĂ fegues de vent: 6.9 mph /  11.1 km/h - -
Vent:- - SSE
Pression baro: 30.3 in /  1026.0 hPa 30.2 in /  1022.9 hPa -
Precipitacions: 0 in /  0.0 mm    
Historical Graphs
 
 
Dades de taula per Octubre 25, 2017
Temps Temperatura Punt de rosada Pression baro Vent Wind Speed RĂ fegues de vent Humitat Rainfall Rate (Hourly)
00:04 57.9 °F /  14.4 °C 45.3 °F /  7.4 °C 30.2 in /  1023.9 hPa Calm     63 % 0 in /  0.0 mm
00:05 53.6 °F /  12.0 °C 45.1 °F /  7.3 °C 30.2 in /  1023.9 hPa Calm   1 mph /  1.6 km/h 73 % 0 in /  0.0 mm
00:15 53.8 °F /  12.1 °C 45 °F /  7.2 °C 30.2 in /  1023.9 hPa Calm     72 % 0 in /  0.0 mm
00:25 54.3 °F /  12.4 °C 45.1 °F /  7.3 °C 30.2 in /  1023.9 hPa West 1 mph /  1.6 km/h 2 mph /  3.2 km/h 71 % 0 in /  0.0 mm
00:45 54.3 °F /  12.4 °C 45.1 °F /  7.3 °C 30.2 in /  1022.9 hPa Calm   2 mph /  3.2 km/h 71 % 0 in /  0.0 mm
00:55 54.3 °F /  12.4 °C 45.5 °F /  7.5 °C 30.2 in /  1022.9 hPa Calm   1 mph /  1.6 km/h 72 % 0 in /  0.0 mm
01:05 54 °F /  12.2 °C 45.1 °F /  7.3 °C 30.2 in /  1022.9 hPa Calm     72 % 0 in /  0.0 mm
01:15 53.8 °F /  12.1 °C 45 °F /  7.2 °C 30.2 in /  1023.9 hPa Calm     72 % 0 in /  0.0 mm
01:25 53.2 °F /  11.8 °C 44.8 °F /  7.1 °C 30.2 in /  1023.9 hPa Calm     73 % 0 in /  0.0 mm
01:35 53.1 °F /  11.7 °C 44.6 °F /  7.0 °C 30.2 in /  1023.9 hPa Calm     73 % 0 in /  0.0 mm
01:45 52.9 °F /  11.6 °C 44.4 °F /  6.9 °C 30.2 in /  1023.9 hPa Calm     73 % 0 in /  0.0 mm
01:55 52.9 °F /  11.6 °C 44.4 °F /  6.9 °C 30.2 in /  1023.9 hPa WNW 2 mph /  3.2 km/h 2 mph /  3.2 km/h 73 % 0 in /  0.0 mm
02:05 52.3 °F /  11.3 °C 44.2 °F /  6.8 °C 30.2 in /  1023.9 hPa WSW 1 mph /  1.6 km/h 2 mph /  3.2 km/h 74 % 0 in /  0.0 mm
02:15 52.3 °F /  11.3 °C 44.2 °F /  6.8 °C 30.2 in /  1023.9 hPa SW 1 mph /  1.6 km/h 2 mph /  3.2 km/h 74 % 0 in /  0.0 mm
02:25 52.3 °F /  11.3 °C 44.2 °F /  6.8 °C 30.2 in /  1023.9 hPa SW 2 mph /  3.2 km/h 3 mph /  4.8 km/h 74 % 0 in /  0.0 mm
02:35 52.3 °F /  11.3 °C 44.6 °F /  7.0 °C 30.2 in /  1023.9 hPa Calm   1 mph /  1.6 km/h 75 % 0 in /  0.0 mm
02:45 52.3 °F /  11.3 °C 44.6 °F /  7.0 °C 30.2 in /  1023.9 hPa Calm     75 % 0 in /  0.0 mm
02:55 52.3 °F /  11.3 °C 44.6 °F /  7.0 °C 30.2 in /  1023.9 hPa Calm   1 mph /  1.6 km/h 75 % 0 in /  0.0 mm
03:05 52.5 °F /  11.4 °C 44.8 °F /  7.1 °C 30.2 in /  1022.9 hPa NW 1 mph /  1.6 km/h 2 mph /  3.2 km/h 75 % 0 in /  0.0 mm
03:15 52 °F /  11.1 °C 44.2 °F /  6.8 °C 30.2 in /  1023.9 hPa West 1 mph /  1.6 km/h 2 mph /  3.2 km/h 75 % 0 in /  0.0 mm
03:25 52 °F /  11.1 °C 44.2 °F /  6.8 °C 30.2 in /  1023.9 hPa West 1 mph /  1.6 km/h 2 mph /  3.2 km/h 75 % 0 in /  0.0 mm
03:35 51.8 °F /  11.0 °C 44.1 °F /  6.7 °C 30.2 in /  1023.9 hPa West 2 mph /  3.2 km/h 2 mph /  3.2 km/h 75 % 0 in /  0.0 mm
03:45 52.2 °F /  11.2 °C 44.8 °F /  7.1 °C 30.2 in /  1023.9 hPa Calm   2 mph /  3.2 km/h 76 % 0 in /  0.0 mm
03:55 52.7 °F /  11.5 °C 45.3 °F /  7.4 °C 30.2 in /  1023.9 hPa WSW 1 mph /  1.6 km/h 1 mph /  1.6 km/h 76 % 0 in /  0.0 mm
04:05 53.2 °F /  11.8 °C 45.5 °F /  7.5 °C 30.3 in /  1024.9 hPa WSW 1 mph /  1.6 km/h 2 mph /  3.2 km/h 75 % 0 in /  0.0 mm
04:15 53.6 °F /  12.0 °C 45.9 °F /  7.7 °C 30.3 in /  1024.9 hPa SW 1 mph /  1.6 km/h 2 mph /  3.2 km/h 75 % 0 in /  0.0 mm
04:25 54.5 °F /  12.5 °C 46.8 °F /  8.2 °C 30.3 in /  1024.9 hPa Calm   1 mph /  1.6 km/h 75 % 0 in /  0.0 mm
04:35 56.7 °F /  13.7 °C 48.6 °F /  9.2 °C 30.3 in /  1024.9 hPa Calm   2 mph /  3.2 km/h 74 % 0 in /  0.0 mm
04:55 57.4 °F /  14.1 °C 48.4 °F /  9.1 °C 30.3 in /  1026.0 hPa NE 3 mph /  4.8 km/h 4 mph /  6.4 km/h 72 % 0 in /  0.0 mm
05:05 57.9 °F /  14.4 °C 48.6 °F /  9.2 °C 30.3 in /  1026.0 hPa NE 2 mph /  3.2 km/h 3 mph /  4.8 km/h 71 % 0 in /  0.0 mm
10:12 58.8 °F /  14.9 °C 49.1 °F /  9.5 °C 30.3 in /  1026.0 hPa NNE 3.5 mph /  5.6 km/h 3.5 mph /  5.6 km/h 70 % 0 in /  0.0 mm
10:17 59.5 °F /  15.3 °C 49.6 °F /  9.8 °C 30.3 in /  1026.0 hPa NNE 3.5 mph /  5.6 km/h 3.5 mph /  5.6 km/h 70 % 0 in /  0.0 mm
10:22 59.7 °F /  15.4 °C 49.8 °F /  9.9 °C 30.3 in /  1026.0 hPa ENE 2.3 mph /  3.7 km/h 2.3 mph /  3.7 km/h 70 % 0 in /  0.0 mm
10:24 60.1 °F /  15.6 °C 50.4 °F /  10.2 °C 30.3 in /  1026.0 hPa NNE 3.5 mph /  5.6 km/h 3.5 mph /  5.6 km/h 70 % 0 in /  0.0 mm
10:29 60.6 °F /  15.9 °C 50.4 °F /  10.2 °C 30.3 in /  1026.0 hPa NE 3.5 mph /  5.6 km/h 3.5 mph /  5.6 km/h 69 % 0 in /  0.0 mm
10:34 61.2 °F /  16.2 °C 50.9 °F /  10.5 °C 30.3 in /  1026.0 hPa NE 3.5 mph /  5.6 km/h 3.5 mph /  5.6 km/h 69 % 0 in /  0.0 mm
10:39 61.7 °F /  16.5 °C 51.1 °F /  10.6 °C 30.3 in /  1026.0 hPa NNE 2 mph /  3.2 km/h 2 mph /  3.2 km/h 68 % 0 in /  0.0 mm
10:44 61.9 °F /  16.6 °C 51.3 °F /  10.7 °C 30.3 in /  1026.0 hPa NE 3.5 mph /  5.6 km/h 3.5 mph /  5.6 km/h 68 % 0 in /  0.0 mm
10:49 61.9 °F /  16.6 °C 51.3 °F /  10.7 °C 30.3 in /  1026.0 hPa NW 4.6 mph /  7.4 km/h 4.6 mph /  7.4 km/h 68 % 0 in /  0.0 mm
10:54 62.4 °F /  16.9 °C 51.3 °F /  10.7 °C 30.3 in /  1026.0 hPa NE 4.6 mph /  7.4 km/h 4.6 mph /  7.4 km/h 67 % 0 in /  0.0 mm
10:59 62.2 °F /  16.8 °C 51.1 °F /  10.6 °C 30.3 in /  1026.0 hPa NNE 5.8 mph /  9.3 km/h 5.8 mph /  9.3 km/h 67 % 0 in /  0.0 mm
11:04 62.6 °F /  17.0 °C 51.1 °F /  10.6 °C 30.3 in /  1026.0 hPa ENE 4.6 mph /  7.4 km/h 4.6 mph /  7.4 km/h 66 % 0 in /  0.0 mm
11:09 63.3 °F /  17.4 °C 51.8 °F /  11.0 °C 30.3 in /  1024.9 hPa NNE 3.5 mph /  5.6 km/h 3.5 mph /  5.6 km/h 66 % 0 in /  0.0 mm
11:14 63.9 °F /  17.7 °C 52 °F /  11.1 °C 30.3 in /  1024.9 hPa ENE 3.5 mph /  5.6 km/h 3.5 mph /  5.6 km/h 65 % 0 in /  0.0 mm
11:19 64 °F /  17.8 °C 52 °F /  11.1 °C 30.3 in /  1024.9 hPa NNE 3.5 mph /  5.6 km/h 3.5 mph /  5.6 km/h 65 % 0 in /  0.0 mm
11:24 64.4 °F /  18.0 °C 52 °F /  11.1 °C 30.3 in /  1026.0 hPa ENE 2.3 mph /  3.7 km/h 2.3 mph /  3.7 km/h 64 % 0 in /  0.0 mm
11:29 64.9 °F /  18.3 °C 52.5 °F /  11.4 °C 30.3 in /  1026.0 hPa ENE 3.8 mph /  6.1 km/h 3.8 mph /  6.1 km/h 64 % 0 in /  0.0 mm
11:34 64.6 °F /  18.1 °C 52.2 °F /  11.2 °C 30.3 in /  1026.0 hPa NNW 3.5 mph /  5.6 km/h 3.5 mph /  5.6 km/h 64 % 0 in /  0.0 mm
11:39 65.3 °F /  18.5 °C 52.9 °F /  11.6 °C 30.3 in /  1026.0 hPa NNE 2.3 mph /  3.7 km/h 2.3 mph /  3.7 km/h 64 % 0 in /  0.0 mm
11:44 66.2 °F /  19.0 °C 52.9 °F /  11.6 °C 30.3 in /  1026.0 hPa NNW 1.4 mph /  2.3 km/h 1.4 mph /  2.3 km/h 62 % 0 in /  0.0 mm
11:49 66.9 °F /  19.4 °C 53.4 °F /  11.9 °C 30.3 in /  1026.0 hPa NNE 2.3 mph /  3.7 km/h   62 % 0 in /  0.0 mm
11:54 67.1 °F /  19.5 °C 53.6 °F /  12.0 °C 30.3 in /  1026.0 hPa NW 2.3 mph /  3.7 km/h 2.3 mph /  3.7 km/h 62 % 0 in /  0.0 mm
11:59 67.5 °F /  19.7 °C 54 °F /  12.2 °C 30.3 in /  1026.0 hPa NNE 3.1 mph /  5.0 km/h 3.1 mph /  5.0 km/h 62 % 0 in /  0.0 mm
12:04 67.6 °F /  19.8 °C 53.8 °F /  12.1 °C 30.3 in /  1026.0 hPa NE 2.4 mph /  3.9 km/h 2.4 mph /  3.9 km/h 61 % 0 in /  0.0 mm
12:09 68.4 °F /  20.2 °C 54 °F /  12.2 °C 30.3 in /  1026.0 hPa SW 2.3 mph /  3.7 km/h   60 % 0 in /  0.0 mm
12:14 68.4 °F /  20.2 °C 53.4 °F /  11.9 °C 30.3 in /  1026.0 hPa NE 2.4 mph /  3.9 km/h 2.4 mph /  3.9 km/h 59 % 0 in /  0.0 mm
12:19 67.8 °F /  19.9 °C 53.1 °F /  11.7 °C 30.3 in /  1026.0 hPa ESE 4.6 mph /  7.4 km/h 4.6 mph /  7.4 km/h 59 % 0 in /  0.0 mm
12:24 68.4 °F /  20.2 °C 53.1 °F /  11.7 °C 30.3 in /  1026.0 hPa ENE 4.6 mph /  7.4 km/h 4.6 mph /  7.4 km/h 58 % 0 in /  0.0 mm
12:29 68.7 °F /  20.4 °C 53.2 °F /  11.8 °C 30.3 in /  1026.0 hPa East 3.6 mph /  5.8 km/h 3.6 mph /  5.8 km/h 58 % 0 in /  0.0 mm
12:34 68.4 °F /  20.2 °C 53.1 °F /  11.7 °C 30.3 in /  1026.0 hPa ENE 3.8 mph /  6.1 km/h 3.8 mph /  6.1 km/h 58 % 0 in /  0.0 mm
12:39 68.5 °F /  20.3 °C 53.2 °F /  11.8 °C 30.3 in /  1026.0 hPa East 2.3 mph /  3.7 km/h 2.3 mph /  3.7 km/h 58 % 0 in /  0.0 mm
12:44 69.1 °F /  20.6 °C 53.8 °F /  12.1 °C 30.3 in /  1026.0 hPa NNE 4.6 mph /  7.4 km/h 4.6 mph /  7.4 km/h 58 % 0 in /  0.0 mm
12:49 69.3 °F /  20.7 °C 53.8 °F /  12.1 °C 30.3 in /  1026.0 hPa ENE 3.5 mph /  5.6 km/h 3.5 mph /  5.6 km/h 58 % 0 in /  0.0 mm
12:54 69.8 °F /  21.0 °C 54 °F /  12.2 °C 30.3 in /  1026.0 hPa ESE 2.3 mph /  3.7 km/h 2.9 mph /  4.7 km/h 57 % 0 in /  0.0 mm
12:59 69.6 °F /  20.9 °C 53.8 °F /  12.1 °C 30.3 in /  1026.0 hPa NE 2.9 mph /  4.7 km/h 2.9 mph /  4.7 km/h 57 % 0 in /  0.0 mm
13:04 69.6 °F /  20.9 °C 53.2 °F /  11.8 °C 30.3 in /  1026.0 hPa ENE 4.6 mph /  7.4 km/h 4.6 mph /  7.4 km/h 56 % 0 in /  0.0 mm
13:14 70.5 °F /  21.4 °C 53.6 °F /  12.0 °C 30.3 in /  1026.0 hPa ESE 3.5 mph /  5.6 km/h 3.5 mph /  5.6 km/h 55 % 0 in /  0.0 mm
13:19 70.5 °F /  21.4 °C 53.6 °F /  12.0 °C 30.3 in /  1026.0 hPa East 3.5 mph /  5.6 km/h 3.5 mph /  5.6 km/h 55 % 0 in /  0.0 mm
13:24 70.5 °F /  21.4 °C 53.6 °F /  12.0 °C 30.3 in /  1026.0 hPa NE 4.6 mph /  7.4 km/h 4.6 mph /  7.4 km/h 55 % 0 in /  0.0 mm
13:29 70.5 °F /  21.4 °C 53.1 °F /  11.7 °C 30.3 in /  1026.0 hPa NE 4.6 mph /  7.4 km/h 4.6 mph /  7.4 km/h 54 % 0 in /  0.0 mm
13:34 71.2 °F /  21.8 °C 53.8 °F /  12.1 °C 30.3 in /  1026.0 hPa ESE 2.9 mph /  4.7 km/h 2.9 mph /  4.7 km/h 54 % 0 in /  0.0 mm
13:39 71.2 °F /  21.8 °C 53.8 °F /  12.1 °C 30.3 in /  1024.9 hPa ENE 2.3 mph /  3.7 km/h 2.3 mph /  3.7 km/h 54 % 0 in /  0.0 mm
13:44 71.6 °F /  22.0 °C 53.6 °F /  12.0 °C 30.3 in /  1024.9 hPa East 3.8 mph /  6.1 km/h 3.8 mph /  6.1 km/h 53 % 0 in /  0.0 mm
13:54 72 °F /  22.2 °C 54.3 °F /  12.4 °C 30.3 in /  1024.9 hPa NNW 3.5 mph /  5.6 km/h 3.5 mph /  5.6 km/h 54 % 0 in /  0.0 mm
13:59 72.3 °F /  22.4 °C 54.1 °F /  12.3 °C 30.3 in /  1024.9 hPa SE 3.5 mph /  5.6 km/h 3.5 mph /  5.6 km/h 53 % 0 in /  0.0 mm
14:04 72.7 °F /  22.6 °C 54.7 °F /  12.6 °C 30.3 in /  1024.9 hPa WNW 2.6 mph /  4.2 km/h 2.6 mph /  4.2 km/h 53 % 0 in /  0.0 mm
14:09 72.5 °F /  22.5 °C 54 °F /  12.2 °C 30.2 in /  1023.9 hPa ESE 3.5 mph /  5.6 km/h 3.5 mph /  5.6 km/h 52 % 0 in /  0.0 mm
14:14 72.5 °F /  22.5 °C 54 °F /  12.2 °C 30.2 in /  1023.9 hPa SE 4.6 mph /  7.4 km/h 4.6 mph /  7.4 km/h 52 % 0 in /  0.0 mm
14:19 73 °F /  22.8 °C 54.9 °F /  12.7 °C 30.2 in /  1023.9 hPa East 2.6 mph /  4.2 km/h 2.6 mph /  4.2 km/h 53 % 0 in /  0.0 mm
14:24 72.7 °F /  22.6 °C 54 °F /  12.2 °C 30.2 in /  1023.9 hPa NW 3.5 mph /  5.6 km/h 3.5 mph /  5.6 km/h 52 % 0 in /  0.0 mm
14:29 73 °F /  22.8 °C 54.3 °F /  12.4 °C 30.2 in /  1023.9 hPa ESE 4.6 mph /  7.4 km/h 4.6 mph /  7.4 km/h 52 % 0 in /  0.0 mm
14:34 72.7 °F /  22.6 °C 54.7 °F /  12.6 °C 30.2 in /  1023.9 hPa East 2.4 mph /  3.9 km/h 2.4 mph /  3.9 km/h 53 % 0 in /  0.0 mm
14:39 73 °F /  22.8 °C 54.3 °F /  12.4 °C 30.2 in /  1023.9 hPa SSE 3.8 mph /  6.1 km/h 3.8 mph /  6.1 km/h 52 % 0 in /  0.0 mm
14:44 73.8 °F /  23.2 °C 55 °F /  12.8 °C 30.2 in /  1023.9 hPa ESE 3.5 mph /  5.6 km/h 3.5 mph /  5.6 km/h 52 % 0 in /  0.0 mm
14:49 73.8 °F /  23.2 °C 55 °F /  12.8 °C 30.2 in /  1023.9 hPa West 3.6 mph /  5.8 km/h 3.6 mph /  5.8 km/h 52 % 0 in /  0.0 mm
14:51 73.8 °F /  23.2 °C 55 °F /  12.8 °C 30.2 in /  1023.9 hPa WSW 3.5 mph /  5.6 km/h 3.5 mph /  5.6 km/h 52 % 0 in /  0.0 mm
14:56 74.3 °F /  23.5 °C 55.6 °F /  13.1 °C 30.2 in /  1023.9 hPa ESE 2.4 mph /  3.9 km/h 2.4 mph /  3.9 km/h 52 % 0 in /  0.0 mm
15:01 74.1 °F /  23.4 °C 54.9 °F /  12.7 °C 30.2 in /  1023.9 hPa SSE 4.6 mph /  7.4 km/h 4.6 mph /  7.4 km/h 51 % 0 in /  0.0 mm
15:06 74.1 °F /  23.4 °C 54.9 °F /  12.7 °C 30.2 in /  1023.9 hPa ESE 4.6 mph /  7.4 km/h 4.6 mph /  7.4 km/h 51 % 0 in /  0.0 mm
15:11 73.6 °F /  23.1 °C 54.3 °F /  12.4 °C 30.2 in /  1023.9 hPa ESE 4.6 mph /  7.4 km/h 4.6 mph /  7.4 km/h 51 % 0 in /  0.0 mm
15:16 73.6 °F /  23.1 °C 54.3 °F /  12.4 °C 30.2 in /  1023.9 hPa ESE 2.3 mph /  3.7 km/h 2.4 mph /  3.9 km/h 51 % 0 in /  0.0 mm
15:21 73.8 °F /  23.2 °C 54.5 °F /  12.5 °C 30.2 in /  1023.9 hPa East 3.5 mph /  5.6 km/h 3.5 mph /  5.6 km/h 51 % 0 in /  0.0 mm
15:31 73.9 °F /  23.3 °C 54.7 °F /  12.6 °C 30.2 in /  1023.9 hPa East 3.6 mph /  5.8 km/h 3.6 mph /  5.8 km/h 51 % 0 in /  0.0 mm
15:36 73.9 °F /  23.3 °C 54.7 °F /  12.6 °C 30.2 in /  1023.9 hPa East 4.6 mph /  7.4 km/h 4.6 mph /  7.4 km/h 51 % 0 in /  0.0 mm
15:41 73.9 °F /  23.3 °C 54.7 °F /  12.6 °C 30.3 in /  1024.9 hPa South 3.5 mph /  5.6 km/h 3.5 mph /  5.6 km/h 51 % 0 in /  0.0 mm
15:46 74.1 °F /  23.4 °C 54.9 °F /  12.7 °C 30.3 in /  1024.9 hPa ESE 4.6 mph /  7.4 km/h 4.6 mph /  7.4 km/h 51 % 0 in /  0.0 mm
15:51 73.9 °F /  23.3 °C 54.7 °F /  12.6 °C 30.3 in /  1024.9 hPa South 4.6 mph /  7.4 km/h 4.6 mph /  7.4 km/h 51 % 0 in /  0.0 mm
15:56 74.1 °F /  23.4 °C 54.9 °F /  12.7 °C 30.2 in /  1023.9 hPa East 3.1 mph /  5.0 km/h 3.1 mph /  5.0 km/h 51 % 0 in /  0.0 mm
16:01 74.5 °F /  23.6 °C 55.2 °F /  12.9 °C 30.2 in /  1023.9 hPa ENE 1.4 mph /  2.3 km/h   51 % 0 in /  0.0 mm
16:06 74.1 °F /  23.4 °C 54.9 °F /  12.7 °C 30.2 in /  1023.9 hPa ESE 5.8 mph /  9.3 km/h 5.8 mph /  9.3 km/h 51 % 0 in /  0.0 mm
16:11 74.3 °F /  23.5 °C 55 °F /  12.8 °C 30.2 in /  1023.9 hPa SE 3.5 mph /  5.6 km/h 3.5 mph /  5.6 km/h 51 % 0 in /  0.0 mm
16:16 74.5 °F /  23.6 °C 55.2 °F /  12.9 °C 30.2 in /  1023.9 hPa ENE 4.6 mph /  7.4 km/h 4.6 mph /  7.4 km/h 51 % 0 in /  0.0 mm
16:21 73.9 °F /  23.3 °C 55.2 °F /  12.9 °C 30.2 in /  1023.9 hPa SW 5.8 mph /  9.3 km/h 5.8 mph /  9.3 km/h 52 % 0 in /  0.0 mm
16:26 74.1 °F /  23.4 °C 55.9 °F /  13.3 °C 30.2 in /  1023.9 hPa ENE 3.6 mph /  5.8 km/h 3.6 mph /  5.8 km/h 53 % 0 in /  0.0 mm
16:31 73.9 °F /  23.3 °C 55.8 °F /  13.2 °C 30.2 in /  1023.9 hPa ESE 5.9 mph /  9.5 km/h 5.9 mph /  9.5 km/h 53 % 0 in /  0.0 mm
16:36 73.6 °F /  23.1 °C 55.9 °F /  13.3 °C 30.2 in /  1023.9 hPa ENE 6.9 mph /  11.1 km/h 6.9 mph /  11.1 km/h 54 % 0 in /  0.0 mm
16:41 73.6 °F /  23.1 °C 56.5 °F /  13.6 °C 30.2 in /  1023.9 hPa NNE 3.5 mph /  5.6 km/h 3.5 mph /  5.6 km/h 55 % 0 in /  0.0 mm
16:46 73.4 °F /  23.0 °C 56.7 °F /  13.7 °C 30.2 in /  1023.9 hPa East 5.9 mph /  9.5 km/h 5.9 mph /  9.5 km/h 56 % 0 in /  0.0 mm
16:51 73 °F /  22.8 °C 56.5 °F /  13.6 °C 30.2 in /  1023.9 hPa SE 6.9 mph /  11.1 km/h 6.9 mph /  11.1 km/h 56 % 0 in /  0.0 mm
16:56 73 °F /  22.8 °C 56.8 °F /  13.8 °C 30.2 in /  1023.9 hPa ESE 5.8 mph /  9.3 km/h 5.8 mph /  9.3 km/h 57 % 0 in /  0.0 mm
17:01 72.7 °F /  22.6 °C 57 °F /  13.9 °C 30.2 in /  1023.9 hPa East 5.8 mph /  9.3 km/h 5.8 mph /  9.3 km/h 58 % 0 in /  0.0 mm
17:06 72.7 °F /  22.6 °C 57 °F /  13.9 °C 30.2 in /  1023.9 hPa East 5.8 mph /  9.3 km/h 5.8 mph /  9.3 km/h 58 % 0 in /  0.0 mm
17:11 72.5 °F /  22.5 °C 57.4 °F /  14.1 °C 30.2 in /  1023.9 hPa ENE 6.9 mph /  11.1 km/h 6.9 mph /  11.1 km/h 59 % 0 in /  0.0 mm
17:16 72.1 °F /  22.3 °C 57 °F /  13.9 °C 30.2 in /  1023.9 hPa ESE 5.8 mph /  9.3 km/h 5.8 mph /  9.3 km/h 59 % 0 in /  0.0 mm
17:21 72 °F /  22.2 °C 57.4 °F /  14.1 °C 30.2 in /  1023.9 hPa ESE 6.2 mph /  10.0 km/h 6.2 mph /  10.0 km/h 60 % 0 in /  0.0 mm
17:26 72 °F /  22.2 °C 57.7 °F /  14.3 °C 30.2 in /  1023.9 hPa ESE 5.8 mph /  9.3 km/h 5.8 mph /  9.3 km/h 61 % 0 in /  0.0 mm
17:31 72 °F /  22.2 °C 57.7 °F /  14.3 °C 30.2 in /  1023.9 hPa ESE 5.8 mph /  9.3 km/h 5.8 mph /  9.3 km/h 61 % 0 in /  0.0 mm
17:36 71.8 °F /  22.1 °C 57.6 °F /  14.2 °C 30.2 in /  1023.9 hPa SE 5.8 mph /  9.3 km/h 5.8 mph /  9.3 km/h 61 % 0 in /  0.0 mm
17:41 71.8 °F /  22.1 °C 58.1 °F /  14.5 °C 30.2 in /  1023.9 hPa SE 3.6 mph /  5.8 km/h 3.6 mph /  5.8 km/h 62 % 0 in /  0.0 mm
17:46 71.8 °F /  22.1 °C 58.1 °F /  14.5 °C 30.2 in /  1023.9 hPa East 4.6 mph /  7.4 km/h 4.6 mph /  7.4 km/h 62 % 0 in /  0.0 mm
17:51 71.6 °F /  22.0 °C 58.3 °F /  14.6 °C 30.2 in /  1023.9 hPa East 3.8 mph /  6.1 km/h 3.8 mph /  6.1 km/h 63 % 0 in /  0.0 mm
17:56 71.6 °F /  22.0 °C 58.3 °F /  14.6 °C 30.2 in /  1023.9 hPa ESE 4.9 mph /  7.9 km/h 4.9 mph /  7.9 km/h 63 % 0 in /  0.0 mm
18:01 71.6 °F /  22.0 °C 58.3 °F /  14.6 °C 30.2 in /  1023.9 hPa SW 1.4 mph /  2.3 km/h 1.4 mph /  2.3 km/h 63 % 0 in /  0.0 mm
18:06 72.1 °F /  22.3 °C 58.5 °F /  14.7 °C 30.2 in /  1023.9 hPa West 2.3 mph /  3.7 km/h   62 % 0 in /  0.0 mm
18:11 72.1 °F /  22.3 °C 58.5 °F /  14.7 °C 30.2 in /  1023.9 hPa WSW 1.2 mph /  1.9 km/h 1.4 mph /  2.3 km/h 62 % 0 in /  0.0 mm
18:21 72.1 °F /  22.3 °C 58.5 °F /  14.7 °C 30.2 in /  1023.9 hPa NW 2.3 mph /  3.7 km/h 2.3 mph /  3.7 km/h 62 % 0 in /  0.0 mm
18:26 71.8 °F /  22.1 °C 58.1 °F /  14.5 °C 30.2 in /  1022.9 hPa South 2.3 mph /  3.7 km/h 2.3 mph /  3.7 km/h 62 % 0 in /  0.0 mm
18:31 71.4 °F /  21.9 °C 57.7 °F /  14.3 °C 30.2 in /  1022.9 hPa NW 2.3 mph /  3.7 km/h 2.3 mph /  3.7 km/h 62 % 0 in /  0.0 mm
18:36 70.7 °F /  21.5 °C 57.9 °F /  14.4 °C 30.2 in /  1022.9 hPa NNE 2.3 mph /  3.7 km/h   64 % 0 in /  0.0 mm
18:41 70.3 °F /  21.3 °C 57.6 °F /  14.2 °C 30.2 in /  1023.9 hPa NNE 1.6 mph /  2.6 km/h 1.6 mph /  2.6 km/h 64 % 0 in /  0.0 mm
18:46 70 °F /  21.1 °C 57.7 °F /  14.3 °C 30.2 in /  1023.9 hPa NNE 2.4 mph /  3.9 km/h   65 % 0 in /  0.0 mm
18:51 69.4 °F /  20.8 °C 57.2 °F /  14.0 °C 30.2 in /  1023.9 hPa SW 3.5 mph /  5.6 km/h 3.5 mph /  5.6 km/h 65 % 0 in /  0.0 mm
18:56 69.4 °F /  20.8 °C 57.2 °F /  14.0 °C 30.2 in /  1023.9 hPa West 1.2 mph /  1.9 km/h   65 % 0 in /  0.0 mm
19:01 69.1 °F /  20.6 °C 56.8 °F /  13.8 °C 30.2 in /  1023.9 hPa West 2.4 mph /  3.9 km/h 2.4 mph /  3.9 km/h 65 % 0 in /  0.0 mm
19:06 68.7 °F /  20.4 °C 56.5 °F /  13.6 °C 30.2 in /  1023.9 hPa SW 2.3 mph /  3.7 km/h 2.3 mph /  3.7 km/h 65 % 0 in /  0.0 mm
19:11 68.5 °F /  20.3 °C 56.3 °F /  13.5 °C 30.2 in /  1023.9 hPa WSW 1.4 mph /  2.3 km/h   65 % 0 in /  0.0 mm
19:16 68.2 °F /  20.1 °C 55.9 °F /  13.3 °C 30.2 in /  1023.9 hPa WSW 2.3 mph /  3.7 km/h 2.3 mph /  3.7 km/h 65 % 0 in /  0.0 mm
19:21 67.8 °F /  19.9 °C 56.5 °F /  13.6 °C 30.2 in /  1023.9 hPa West 1.6 mph /  2.6 km/h 1.6 mph /  2.6 km/h 67 % 0 in /  0.0 mm
19:26 67.6 °F /  19.8 °C 56.3 °F /  13.5 °C 30.2 in /  1023.9 hPa WSW 2.6 mph /  4.2 km/h 2.6 mph /  4.2 km/h 67 % 0 in /  0.0 mm
19:31 67.5 °F /  19.7 °C 56.1 °F /  13.4 °C 30.2 in /  1023.9 hPa WSW 2.3 mph /  3.7 km/h 2.3 mph /  3.7 km/h 67 % 0 in /  0.0 mm
19:36 67.1 °F /  19.5 °C 56.1 °F /  13.4 °C 30.2 in /  1023.9 hPa NW 1.2 mph /  1.9 km/h   68 % 0 in /  0.0 mm
19:41 66.9 °F /  19.4 °C 56.5 °F /  13.6 °C 30.3 in /  1024.9 hPa Calm     69 % 0 in /  0.0 mm
19:46 66.6 °F /  19.2 °C 56.5 °F /  13.6 °C 30.3 in /  1024.9 hPa Calm     70 % 0 in /  0.0 mm
19:51 66.2 °F /  19.0 °C 56.1 °F /  13.4 °C 30.3 in /  1024.9 hPa Calm     70 % 0 in /  0.0 mm
19:56 66 °F /  18.9 °C 56.7 °F /  13.7 °C 30.3 in /  1024.9 hPa Calm     72 % 0 in /  0.0 mm
20:01 65.8 °F /  18.8 °C 56.7 °F /  13.7 °C 30.3 in /  1024.9 hPa WSW 2.2 mph /  3.5 km/h   72 % 0 in /  0.0 mm
20:06 65.7 °F /  18.7 °C 56.5 °F /  13.6 °C 30.3 in /  1024.9 hPa WSW 1.4 mph /  2.3 km/h 1.4 mph /  2.3 km/h 72 % 0 in /  0.0 mm
20:11 65.5 °F /  18.6 °C 56.1 °F /  13.4 °C 30.3 in /  1026.0 hPa WSW 2.3 mph /  3.7 km/h 2.3 mph /  3.7 km/h 72 % 0 in /  0.0 mm
20:16 65.3 °F /  18.5 °C 56.5 °F /  13.6 °C 30.3 in /  1026.0 hPa Calm     73 % 0 in /  0.0 mm
20:21 65.1 °F /  18.4 °C 56.7 °F /  13.7 °C 30.3 in /  1026.0 hPa NW 1.2 mph /  1.9 km/h 1.2 mph /  1.9 km/h 74 % 0 in /  0.0 mm
20:26 64.9 °F /  18.3 °C 56.5 °F /  13.6 °C 30.3 in /  1026.0 hPa NW 1.2 mph /  1.9 km/h   74 % 0 in /  0.0 mm
20:31 64.9 °F /  18.3 °C 56.5 °F /  13.6 °C 30.3 in /  1026.0 hPa Calm     74 % 0 in /  0.0 mm
20:36 64.8 °F /  18.2 °C 56.3 °F /  13.5 °C 30.3 in /  1026.0 hPa Calm     74 % 0 in /  0.0 mm
20:41 64.6 °F /  18.1 °C 56.1 °F /  13.4 °C 30.3 in /  1026.0 hPa Calm     74 % 0 in /  0.0 mm
20:46 64.6 °F /  18.1 °C 56.5 °F /  13.6 °C 30.3 in /  1026.0 hPa Calm     75 % 0 in /  0.0 mm
20:51 64.4 °F /  18.0 °C 55.9 °F /  13.3 °C 30.3 in /  1026.0 hPa Calm     74 % 0 in /  0.0 mm
20:56 64.2 °F /  17.9 °C 56.1 °F /  13.4 °C 30.3 in /  1026.0 hPa Calm     75 % 0 in /  0.0 mm
21:01 64.2 °F /  17.9 °C 56.1 °F /  13.4 °C 30.3 in /  1026.0 hPa Calm     75 % 0 in /  0.0 mm
21:06 63.9 °F /  17.7 °C 56.1 °F /  13.4 °C 30.3 in /  1026.0 hPa NW 1.2 mph /  1.9 km/h 1.2 mph /  1.9 km/h 76 % 0 in /  0.0 mm
21:11 63.7 °F /  17.6 °C 55.9 °F /  13.3 °C 30.3 in /  1026.0 hPa Calm     76 % 0 in /  0.0 mm
21:16 63.5 °F /  17.5 °C 55.4 °F /  13.0 °C 30.3 in /  1026.0 hPa NW 1.2 mph /  1.9 km/h   75 % 0 in /  0.0 mm
21:21 63.3 °F /  17.4 °C 55.6 °F /  13.1 °C 30.3 in /  1026.0 hPa Calm     76 % 0 in /  0.0 mm
21:26 63.3 °F /  17.4 °C 55.6 °F /  13.1 °C 30.3 in /  1026.0 hPa Calm     76 % 0 in /  0.0 mm
21:31 63.1 °F /  17.3 °C 55.8 °F /  13.2 °C 30.3 in /  1026.0 hPa Calm     77 % 0 in /  0.0 mm
21:36 63 °F /  17.2 °C 55.6 °F /  13.1 °C 30.3 in /  1026.0 hPa Calm     77 % 0 in /  0.0 mm
21:41 63 °F /  17.2 °C 55.6 °F /  13.1 °C 30.3 in /  1026.0 hPa Calm     77 % 0 in /  0.0 mm
21:46 62.8 °F /  17.1 °C 55.6 °F /  13.1 °C 30.3 in /  1026.0 hPa Calm     77 % 0 in /  0.0 mm
21:51 62.6 °F /  17.0 °C 55.2 °F /  12.9 °C 30.3 in /  1026.0 hPa Calm     77 % 0 in /  0.0 mm
21:56 62.4 °F /  16.9 °C 55.8 °F /  13.2 °C 30.3 in /  1026.0 hPa Calm     79 % 0 in /  0.0 mm
22:01 62.2 °F /  16.8 °C 55.6 °F /  13.1 °C 30.3 in /  1026.0 hPa Calm     79 % 0 in /  0.0 mm
22:06 62.2 °F /  16.8 °C 55.6 °F /  13.1 °C 30.3 in /  1026.0 hPa Calm     79 % 0 in /  0.0 mm
22:11 62.2 °F /  16.8 °C 55.6 °F /  13.1 °C 30.3 in /  1026.0 hPa Calm     79 % 0 in /  0.0 mm
22:16 62.2 °F /  16.8 °C 55.6 °F /  13.1 °C 30.3 in /  1026.0 hPa Calm     79 % 0 in /  0.0 mm
22:21 62.1 °F /  16.7 °C 55.8 °F /  13.2 °C 30.3 in /  1026.0 hPa Calm     80 % 0 in /  0.0 mm
22:26 61.9 °F /  16.6 °C 55.2 °F /  12.9 °C 30.3 in /  1026.0 hPa Calm     79 % 0 in /  0.0 mm
22:31 61.9 °F /  16.6 °C 55.6 °F /  13.1 °C 30.3 in /  1026.0 hPa NW 1.2 mph /  1.9 km/h   80 % 0 in /  0.0 mm
22:36 61.9 °F /  16.6 °C 55.6 °F /  13.1 °C 30.3 in /  1026.0 hPa WNW 2.3 mph /  3.7 km/h 2.3 mph /  3.7 km/h 80 % 0 in /  0.0 mm
22:41 61.9 °F /  16.6 °C 55.6 °F /  13.1 °C 30.3 in /  1024.9 hPa WNW 1.2 mph /  1.9 km/h   80 % 0 in /  0.0 mm
23:08 61 °F /  16.1 °C 55.4 °F /  13.0 °C 30.3 in /  1026.0 hPa Calm     82 % 0 in /  0.0 mm
23:13 60.8 °F /  16.0 °C 55.2 °F /  12.9 °C 30.3 in /  1026.0 hPa Calm     82 % 0 in /  0.0 mm
23:18 60.6 °F /  15.9 °C 55 °F /  12.8 °C 30.3 in /  1026.0 hPa Calm     82 % 0 in /  0.0 mm
23:23 60.6 °F /  15.9 °C 55 °F /  12.8 °C 30.3 in /  1026.0 hPa Calm     82 % 0 in /  0.0 mm
23:28 60.4 °F /  15.8 °C 54.9 °F /  12.7 °C 30.3 in /  1026.0 hPa Calm     82 % 0 in /  0.0 mm
23:33 60.3 °F /  15.7 °C 54.7 °F /  12.6 °C 30.3 in /  1026.0 hPa Calm     82 % 0 in /  0.0 mm
23:38 60.1 °F /  15.6 °C 54.9 °F /  12.7 °C 30.3 in /  1026.0 hPa Calm     83 % 0 in /  0.0 mm
23:43 60.1 °F /  15.6 °C 54.9 °F /  12.7 °C 30.3 in /  1026.0 hPa Calm     83 % 0 in /  0.0 mm
23:48 59.9 °F /  15.5 °C 54.7 °F /  12.6 °C 30.3 in /  1026.0 hPa Calm     83 % 0 in /  0.0 mm
23:53 59.9 °F /  15.5 °C 54.7 °F /  12.6 °C 30.3 in /  1026.0 hPa Calm     83 % 0 in /  0.0 mm
23:58 59.5 °F /  15.3 °C 54.3 °F /  12.4 °C 30.3 in /  1026.0 hPa Calm     83 % 0 in /  0.0 mm
Meteo Sesrovires
Elogis d' Weather Underground - 3.5 mb

Guio original per  Jim McMurry - jmcmurry@mwt.net Adaptat per a la plantilla per  Wim van der Kuil - Leuven-Template.eu

Trobareu la nostra informacio del temps tambe a:

Weather Underground

AWEKAS